createdAt,value
2023-04-16T00:02:25.733Z,15.05
2023-04-16T00:05:28.428Z,15.55
2023-04-16T00:08:30.583Z,14.77
2023-04-16T00:11:33.039Z,15.15
2023-04-16T00:14:35.334Z,16.58
2023-04-16T00:17:37.841Z,16.52
2023-04-16T00:20:40.086Z,15.70
2023-04-16T00:23:42.753Z,14.93
2023-04-16T00:26:46.339Z,14.70
2023-04-16T00:29:49.047Z,14.35
2023-04-16T00:32:51.273Z,14.80
2023-04-16T00:35:53.858Z,16.08
2023-04-16T00:38:57.166Z,15.90
2023-04-16T00:41:59.742Z,13.73
2023-04-16T00:45:02.159Z,14.65
2023-04-16T00:48:05.949Z,13.38
2023-04-16T00:54:11.257Z,12.15
2023-04-16T00:57:14.431Z,11.73
2023-04-16T01:00:17.199Z,12.48
2023-04-16T01:03:19.781Z,12.65
2023-04-16T01:06:23.720Z,13.25
2023-04-16T01:09:26.311Z,13.18
2023-04-16T01:12:29.066Z,11.70
2023-04-16T01:15:31.706Z,11.95
2023-04-16T01:18:35.675Z,13.60
2023-04-16T01:21:37.966Z,12.75
2023-04-16T01:24:40.685Z,10.77
2023-04-16T01:27:45.772Z,12.07
2023-04-16T01:30:48.304Z,11.33
2023-04-16T01:33:51.563Z,11.27
2023-04-16T01:36:54.056Z,12.07
2023-04-16T01:39:56.382Z,12.30
2023-04-16T01:42:58.871Z,10.82
2023-04-16T01:46:20.996Z,11.43
2023-04-16T01:49:23.593Z,11.88
2023-04-16T01:52:25.874Z,11.50
2023-04-16T01:55:28.410Z,12.07
2023-04-16T01:58:32.633Z,11.98
2023-04-16T02:01:35.629Z,9.98
2023-04-16T02:04:43.830Z,10.80
2023-04-16T02:07:46.106Z,11.65
2023-04-16T02:10:50.592Z,11.95
2023-04-16T02:13:52.830Z,11.10
2023-04-16T02:16:55.504Z,10.30
2023-04-16T02:19:58.256Z,10.67
2023-04-16T02:23:00.841Z,10.07
2023-04-16T02:26:03.776Z,11.23
2023-04-16T02:29:06.585Z,11.30
2023-04-16T02:32:10.445Z,11.63
2023-04-16T02:35:15.321Z,11.40
2023-04-16T02:38:17.541Z,11.57
2023-04-16T02:41:20.364Z,10.15
2023-04-16T02:44:22.594Z,10.15
2023-04-16T02:47:25.430Z,12.05
2023-04-16T02:50:27.658Z,10.50
2023-04-16T02:53:30.184Z,11.12
2023-04-16T02:56:32.403Z,10.68
2023-04-16T02:59:34.897Z,11.32
2023-04-16T03:02:37.368Z,11.88
2023-04-16T03:05:40.459Z,10.47
2023-04-16T03:08:42.774Z,10.17
2023-04-16T03:11:45.391Z,11.60
2023-04-16T03:14:47.674Z,9.40
2023-04-16T03:17:50.135Z,9.18
2023-04-16T03:20:53.248Z,11.07
2023-04-16T03:23:56.127Z,11.20
2023-04-16T03:26:58.895Z,11.80
2023-04-16T03:30:02.427Z,9.95
2023-04-16T03:33:06.863Z,10.18
2023-04-16T03:36:10.138Z,9.60
2023-04-16T03:39:12.483Z,9.80
2023-04-16T03:42:15.121Z,8.95
2023-04-16T03:45:17.335Z,9.75
2023-04-16T03:48:20.455Z,9.50
2023-04-16T03:51:22.817Z,11.18
2023-04-16T03:54:25.488Z,10.40
2023-04-16T03:57:28.272Z,9.60
2023-04-16T04:00:31.507Z,9.57
2023-04-16T04:03:34.455Z,10.10
2023-04-16T04:06:37.432Z,9.35
2023-04-16T04:09:39.948Z,10.60
2023-04-16T04:12:43.404Z,9.80
2023-04-16T04:15:45.951Z,8.90
2023-04-16T04:18:48.211Z,9.55
2023-04-16T04:21:51.036Z,10.15
2023-04-16T04:24:53.379Z,8.20
2023-04-16T04:27:55.901Z,9.85
2023-04-16T04:30:58.990Z,8.90
2023-04-16T04:34:01.521Z,8.88
2023-04-16T04:37:03.914Z,9.25
2023-04-16T04:40:07.243Z,9.40
2023-04-16T04:43:10.006Z,10.13
2023-04-16T04:46:12.676Z,9.75
2023-04-16T04:49:15.707Z,8.77
2023-04-16T04:52:18.191Z,8.98
2023-04-16T04:55:20.669Z,8.77
2023-04-16T04:58:23.158Z,8.00
2023-04-16T05:01:25.597Z,8.77
2023-04-16T05:04:28.158Z,7.80
2023-04-16T05:07:30.758Z,8.52
2023-04-16T05:10:33.475Z,8.82
2023-04-16T05:13:35.644Z,7.95
2023-04-16T05:16:38.377Z,8.63
2023-04-16T05:19:40.601Z,8.32
2023-04-16T05:22:43.064Z,8.32
2023-04-16T05:25:45.384Z,8.82
2023-04-16T05:28:47.897Z,7.85
2023-04-16T05:31:50.276Z,8.32
2023-04-16T05:34:52.757Z,9.27
2023-04-16T05:37:54.883Z,8.38
2023-04-16T05:40:58.634Z,8.45
2023-04-16T05:44:00.856Z,8.25
2023-04-16T05:47:03.328Z,7.82
2023-04-16T05:50:06.308Z,8.63
2023-04-16T05:53:09.537Z,7.53
2023-04-16T05:56:11.798Z,8.65
2023-04-16T05:59:14.360Z,7.78
2023-04-16T06:02:16.766Z,7.95
2023-04-16T06:05:19.393Z,9.00
2023-04-16T06:08:21.677Z,8.98
2023-04-16T06:11:24.280Z,9.45
2023-04-16T06:14:26.454Z,9.93
2023-04-16T06:17:28.945Z,8.95
2023-04-16T06:20:31.384Z,10.60
2023-04-16T06:23:33.892Z,10.13
2023-04-16T06:26:36.157Z,9.00
2023-04-16T06:29:41.579Z,8.77
2023-04-16T06:32:44.531Z,8.80
2023-04-16T06:35:47.236Z,8.02
2023-04-16T06:38:49.365Z,7.00
2023-04-16T06:41:51.967Z,8.18
2023-04-16T06:44:54.105Z,7.28
2023-04-16T06:47:58.874Z,7.95
2023-04-16T06:51:01.882Z,8.52
2023-04-16T06:54:04.597Z,8.60
2023-04-16T06:57:06.922Z,7.10
2023-04-16T07:00:10.048Z,7.37
2023-04-16T07:03:12.421Z,7.67
2023-04-16T07:06:15.273Z,7.35
2023-04-16T07:09:20.503Z,6.85
2023-04-16T07:12:23.243Z,7.30
2023-04-16T07:15:25.541Z,5.90
2023-04-16T07:18:28.070Z,6.75
2023-04-16T07:21:31.550Z,6.10
2023-04-16T07:24:34.228Z,6.87
2023-04-16T07:27:36.465Z,5.57
2023-04-16T07:30:39.053Z,5.00
2023-04-16T07:33:41.313Z,5.03
2023-04-16T07:36:43.801Z,6.30
2023-04-16T07:39:46.018Z,5.43
2023-04-16T07:42:48.829Z,5.37
2023-04-16T07:45:51.031Z,5.05
2023-04-16T07:48:53.564Z,5.50
2023-04-16T07:51:55.728Z,5.07
2023-04-16T07:54:58.212Z,6.05
2023-04-16T07:58:00.643Z,5.97
2023-04-16T08:01:03.155Z,5.47
2023-04-16T08:04:05.846Z,6.40
2023-04-16T08:07:08.187Z,5.68
2023-04-16T08:10:11.037Z,5.62
2023-04-16T08:13:13.294Z,4.82
2023-04-16T08:16:15.796Z,4.72
2023-04-16T08:19:18.437Z,5.07
2023-04-16T08:22:21.208Z,4.93
2023-04-16T08:25:24.688Z,5.65
2023-04-16T08:28:27.140Z,4.05
2023-04-16T08:31:29.536Z,4.78
2023-04-16T08:34:32.426Z,5.13
2023-04-16T08:37:34.642Z,4.67
2023-04-16T08:40:41.645Z,4.78
2023-04-16T08:43:45.403Z,5.45
2023-04-16T08:46:48.692Z,5.03
2023-04-16T08:49:55.599Z,4.65
2023-04-16T08:53:03.517Z,4.68
2023-04-16T08:56:09.797Z,4.05
2023-04-16T08:59:12.689Z,4.40
2023-04-16T09:02:15.504Z,5.12
2023-04-16T09:05:19.113Z,4.70
2023-04-16T09:08:21.571Z,4.03
2023-04-16T09:11:24.418Z,4.03
2023-04-16T09:14:27.056Z,4.33
2023-04-16T09:17:29.717Z,3.35
2023-04-16T09:20:32.046Z,4.05
2023-04-16T09:23:35.371Z,4.10
2023-04-16T09:26:37.886Z,4.10
2023-04-16T09:29:41.669Z,3.85
2023-04-16T09:32:43.902Z,4.65
2023-04-16T09:35:48.070Z,4.13
2023-04-16T09:38:52.435Z,4.32
2023-04-16T09:41:55.289Z,4.82
2023-04-16T09:45:00.329Z,4.65
2023-04-16T09:48:05.962Z,4.45
2023-04-16T09:51:08.239Z,3.87
2023-04-16T09:54:11.164Z,5.15
2023-04-16T09:57:15.860Z,4.00
2023-04-16T10:00:19.187Z,4.70
2023-04-16T10:03:34.518Z,4.62
2023-04-16T10:06:37.174Z,4.87
2023-04-16T10:09:40.758Z,4.95
2023-04-16T10:12:43.613Z,4.47
2023-04-16T10:15:46.277Z,4.32
2023-04-16T10:18:48.454Z,4.03
2023-04-16T10:21:51.360Z,4.22
2023-04-16T10:24:54.704Z,4.80
2023-04-16T10:27:57.418Z,4.22
2023-04-16T10:31:01.450Z,3.92
2023-04-16T10:34:05.236Z,3.97
2023-04-16T10:37:07.415Z,3.70
2023-04-16T10:40:27.235Z,3.87
2023-04-16T10:43:34.242Z,4.03
2023-04-16T10:46:39.255Z,2.90
2023-04-16T10:49:42.690Z,4.10
2023-04-16T10:52:45.734Z,3.42
2023-04-16T10:56:27.628Z,3.15
2023-04-16T10:59:32.195Z,3.22
2023-04-16T11:02:34.450Z,2.80
2023-04-16T11:05:49.078Z,2.60
2023-04-16T11:08:55.040Z,2.50
2023-04-16T11:11:58.302Z,2.35
2023-04-16T11:15:06.841Z,2.65
2023-04-16T11:18:09.771Z,1.60
2023-04-16T11:21:12.735Z,2.47
2023-04-16T11:27:17.520Z,2.47
2023-04-16T11:30:29.396Z,2.30
2023-04-16T11:33:31.661Z,2.62
2023-04-16T11:36:44.011Z,1.98
2023-04-16T11:39:51.255Z,2.90
2023-04-16T11:42:53.824Z,2.42
2023-04-16T11:45:56.927Z,1.73
2023-04-16T11:48:59.902Z,1.77
2023-04-16T11:52:02.176Z,1.80
2023-04-16T11:55:05.041Z,3.00
2023-04-16T11:58:16.629Z,2.90
2023-04-16T12:01:21.362Z,2.20
2023-04-16T12:04:26.064Z,2.03
2023-04-16T12:07:28.419Z,2.25
2023-04-16T12:10:37.238Z,1.70
2023-04-16T12:13:40.013Z,1.98
2023-04-16T12:16:42.749Z,1.73
2023-04-16T12:19:58.643Z,2.12
2023-04-16T12:23:01.407Z,1.98
2023-04-16T12:26:12.514Z,2.50
2023-04-16T12:29:19.533Z,2.25
2023-04-16T12:32:23.345Z,2.10
2023-04-16T12:35:35.099Z,2.20
2023-04-16T12:38:37.321Z,2.00
2023-04-16T12:41:41.809Z,1.70
2023-04-16T12:44:44.035Z,2.05
2023-04-16T12:47:47.200Z,1.70
2023-04-16T12:50:49.464Z,2.17
2023-04-16T12:53:51.947Z,2.43
2023-04-16T12:56:54.220Z,2.62
2023-04-16T12:59:57.601Z,1.90
2023-04-16T13:02:59.971Z,2.05
2023-04-16T13:06:03.451Z,2.10
2023-04-16T13:09:05.792Z,2.67
2023-04-16T13:12:08.310Z,1.83
2023-04-16T13:15:10.838Z,2.37
2023-04-16T13:18:13.315Z,2.08
2023-04-16T13:21:15.717Z,1.77
2023-04-16T13:24:18.204Z,1.90
2023-04-16T13:27:20.465Z,1.73
2023-04-16T13:30:23.125Z,1.83
2023-04-16T13:33:26.069Z,1.65
2023-04-16T13:36:30.021Z,1.90
2023-04-16T13:39:32.172Z,1.98
2023-04-16T13:42:34.608Z,1.63
2023-04-16T13:45:38.036Z,1.65
2023-04-16T13:48:40.765Z,1.75
2023-04-16T13:51:44.639Z,1.80
2023-04-16T13:54:47.061Z,1.67
2023-04-16T13:57:56.273Z,2.10
2023-04-16T14:00:58.834Z,2.12
2023-04-16T14:04:06.441Z,2.00
2023-04-16T14:07:09.109Z,1.87
2023-04-16T14:10:11.921Z,2.00
2023-04-16T14:13:14.222Z,2.60
2023-04-16T14:16:16.764Z,1.83
2023-04-16T14:19:19.015Z,1.70
2023-04-16T14:22:21.574Z,1.90
2023-04-16T14:25:24.348Z,2.03
2023-04-16T14:28:26.879Z,1.87
2023-04-16T14:31:29.111Z,1.62
2023-04-16T14:34:31.617Z,1.75
2023-04-16T14:37:35.885Z,1.45
2023-04-16T14:40:38.501Z,2.12
2023-04-16T14:43:41.424Z,1.70
2023-04-16T14:46:44.606Z,2.30
2023-04-16T14:49:46.828Z,1.77
2023-04-16T14:52:50.281Z,1.85
2023-04-16T14:55:53.220Z,1.70
2023-04-16T14:58:55.864Z,1.80
2023-04-16T15:01:58.826Z,2.10
2023-04-16T15:05:01.556Z,2.67
2023-04-16T15:08:05.402Z,1.62
2023-04-16T15:11:08.083Z,1.52
2023-04-16T15:14:10.539Z,2.67
2023-04-16T15:17:13.312Z,1.85
2023-04-16T15:20:15.940Z,1.33
2023-04-16T15:23:18.408Z,1.40
2023-04-16T15:26:20.706Z,1.58
2023-04-16T15:29:23.208Z,1.70
2023-04-16T15:32:25.637Z,1.40
2023-04-16T15:35:28.252Z,1.60
2023-04-16T15:38:30.982Z,1.80
2023-04-16T15:41:36.282Z,1.30
2023-04-16T15:44:39.255Z,1.50
2023-04-16T15:47:43.140Z,1.85
2023-04-16T15:50:45.423Z,1.70
2023-04-16T15:53:49.549Z,1.30
2023-04-16T15:56:51.738Z,1.70
2023-04-16T16:03:02.577Z,1.60
2023-04-16T16:09:08.202Z,2.00
2023-04-16T16:12:10.885Z,1.40
2023-04-16T16:15:13.009Z,1.80
2023-04-16T16:18:15.535Z,1.73
2023-04-16T16:21:17.790Z,1.33
2023-04-16T16:24:20.241Z,1.83
2023-04-16T16:27:22.920Z,1.90
2023-04-16T16:30:26.388Z,1.70
2023-04-16T16:33:28.724Z,2.03
2023-04-16T16:36:34.183Z,2.10
2023-04-16T16:39:38.560Z,1.85
2023-04-16T16:42:41.518Z,1.83
2023-04-16T16:45:43.965Z,1.98
2023-04-16T16:48:46.644Z,1.53
2023-04-16T16:51:48.939Z,1.67
2023-04-16T16:54:53.189Z,2.00
2023-04-16T16:57:56.004Z,2.20
2023-04-16T17:01:01.168Z,2.45
2023-04-16T17:04:04.227Z,1.90
2023-04-16T17:07:06.855Z,1.75
2023-04-16T17:10:15.840Z,2.05
2023-04-16T17:13:21.439Z,2.58
2023-04-16T17:16:23.991Z,2.15
2023-04-16T17:19:27.423Z,2.33
2023-04-16T17:22:29.631Z,2.03
2023-04-16T17:25:32.150Z,2.28
2023-04-16T17:28:34.404Z,1.92
2023-04-16T17:31:36.994Z,2.10
2023-04-16T17:34:39.279Z,2.12
2023-04-16T17:37:41.769Z,1.90
2023-04-16T17:40:43.995Z,2.53
2023-04-16T17:43:50.560Z,1.60
2023-04-16T17:46:52.773Z,1.95
2023-04-16T17:49:55.485Z,1.87
2023-04-16T17:53:03.226Z,1.83
2023-04-16T17:56:05.768Z,2.05
2023-04-16T17:59:07.971Z,2.00
2023-04-16T18:02:10.587Z,2.10
2023-04-16T18:05:13.272Z,2.40
2023-04-16T18:08:15.972Z,2.45
2023-04-16T18:11:18.661Z,2.37
2023-04-16T18:14:21.486Z,2.58
2023-04-16T18:17:24.170Z,2.50
2023-04-16T18:20:27.166Z,2.60
2023-04-16T18:23:29.709Z,2.20
2023-04-16T18:26:35.668Z,2.33
2023-04-16T18:29:39.848Z,2.58
2023-04-16T18:32:54.987Z,2.53
2023-04-16T18:36:06.078Z,2.78
2023-04-16T18:39:08.248Z,3.28
2023-04-16T18:42:10.763Z,2.83
2023-04-16T18:45:20.979Z,2.90
2023-04-16T18:48:24.166Z,3.12
2023-04-16T18:51:27.296Z,3.08
2023-04-16T18:54:29.859Z,3.10
2023-04-16T18:57:32.198Z,3.42
2023-04-16T19:00:34.920Z,3.20
2023-04-16T19:03:37.335Z,2.92
2023-04-16T19:06:40.300Z,2.97
2023-04-16T19:09:42.670Z,2.95
2023-04-16T19:12:45.371Z,3.53
2023-04-16T19:15:47.646Z,3.17
2023-04-16T19:18:50.627Z,3.33
2023-04-16T19:21:52.844Z,2.83
2023-04-16T19:24:55.574Z,3.20
2023-04-16T19:27:57.876Z,2.25
2023-04-16T19:31:00.416Z,3.10
2023-04-16T19:34:02.633Z,2.58
2023-04-16T19:37:05.275Z,2.62
2023-04-16T19:40:08.174Z,3.00
2023-04-16T19:43:10.594Z,2.85
2023-04-16T19:46:12.853Z,2.17
2023-04-16T19:49:15.488Z,2.60
2023-04-16T19:52:17.766Z,2.70
2023-04-16T19:55:20.278Z,3.50
2023-04-16T19:58:22.455Z,3.28
2023-04-16T20:01:25.067Z,2.90
2023-04-16T20:04:27.662Z,3.37
2023-04-16T20:07:30.275Z,3.30
2023-04-16T20:10:32.886Z,3.92
2023-04-16T20:13:37.461Z,2.70
2023-04-16T20:16:39.992Z,2.60
2023-04-16T20:19:42.228Z,2.60
2023-04-16T20:22:44.809Z,3.15
2023-04-16T20:25:47.287Z,2.80
2023-04-16T20:28:49.789Z,2.83
2023-04-16T20:31:52.198Z,2.80
2023-04-16T20:34:55.660Z,2.73
2023-04-16T20:37:57.860Z,2.58
2023-04-16T20:41:10.272Z,2.55
2023-04-16T20:44:18.162Z,2.47
2023-04-16T20:47:22.146Z,2.83
2023-04-16T20:53:28.003Z,2.33
2023-04-16T20:56:30.208Z,2.08
2023-04-16T20:59:32.744Z,2.28
2023-04-16T21:02:35.104Z,2.45
2023-04-16T21:05:37.820Z,2.45
2023-04-16T21:08:40.070Z,2.28
2023-04-16T21:11:42.597Z,2.37
2023-04-16T21:14:44.780Z,2.67
2023-04-16T21:17:47.311Z,2.30
2023-04-16T21:20:49.573Z,2.70
2023-04-16T21:23:52.093Z,1.95
2023-04-16T21:26:54.342Z,2.42
2023-04-16T21:29:56.826Z,2.37
2023-04-16T21:32:59.042Z,1.90
2023-04-16T21:36:01.765Z,2.28
2023-04-16T21:39:03.959Z,1.77
2023-04-16T21:42:06.432Z,2.42
2023-04-16T21:45:09.905Z,2.05
2023-04-16T21:48:12.476Z,2.25
2023-04-16T21:51:15.818Z,1.62
2023-04-16T21:57:22.212Z,2.50
2023-04-16T22:00:24.941Z,2.20
2023-04-16T22:03:27.778Z,1.85
2023-04-16T22:09:32.685Z,2.15
2023-04-16T22:12:37.829Z,2.25
2023-04-16T22:15:40.508Z,1.90
2023-04-16T22:18:43.059Z,2.13
2023-04-16T22:21:46.287Z,2.22
2023-04-16T22:24:49.024Z,2.10
2023-04-16T22:27:51.214Z,1.85
2023-04-16T22:30:53.821Z,2.28
2023-04-16T22:33:56.070Z,2.22
2023-04-16T22:36:58.719Z,2.05
2023-04-16T22:40:01.006Z,1.75
2023-04-16T22:43:04.463Z,1.87
2023-04-16T22:46:07.979Z,2.20
2023-04-16T22:49:10.696Z,1.80
2023-04-16T22:52:13.097Z,2.15
2023-04-16T22:55:15.788Z,1.95
2023-04-16T22:58:18.019Z,1.85
2023-04-16T23:01:20.517Z,2.22
2023-04-16T23:04:22.952Z,1.90
2023-04-16T23:07:25.584Z,2.33
2023-04-16T23:10:27.821Z,1.90
2023-04-16T23:13:30.359Z,1.70
2023-04-16T23:16:32.572Z,2.08
2023-04-16T23:19:35.044Z,1.90
2023-04-16T23:22:37.204Z,2.35
2023-04-16T23:25:41.331Z,1.55
2023-04-16T23:28:43.484Z,2.12
2023-04-16T23:31:45.980Z,2.45
2023-04-16T23:34:48.309Z,2.00
2023-04-16T23:37:50.819Z,2.10
2023-04-16T23:40:52.997Z,1.52
2023-04-16T23:43:55.436Z,1.92
2023-04-16T23:46:57.662Z,2.03
2023-04-16T23:50:00.440Z,2.10
2023-04-16T23:53:02.602Z,1.70
2023-04-16T23:56:05.345Z,2.62
2023-04-16T23:59:10.530Z,2.15
